Eastern Asia — 3FQP2 — position and weather

sailwx.info

Track history (hours):
 
Tides and Currents Weather Stations Pressure Air Temp Water Temp Dewpoint Dewpoint Depression Visibility Wind Speed Wind Dir Waves Ship Positions

Eastern Asia

Last reported at 2014-Oct-18 23:32 UTC. Time now 2014-Oct-23 01:48 UTC.
Position N 34°06' E 132°22'.

Length 175 m; draft 8.2 m.

Type: Cargo ship. MMSI: 355530000.

Date/timePositionNaut miles runAvg speedWind from/ knotsBaromVisibWave heightAir tempDewpointWater temp
2014-Oct-18 23:32N 34°06' E 132°22'8 0.3
2014-Oct-17 22:30N 34°11' E 132°15'0 0.0
2014-Oct-17 19:30N 34°11' E 132°15'0 0.0
2014-Oct-17 18:18N 34°11' E 132°15'0 0.0
2014-Oct-17 17:18N 34°11' E 132°15'0 0.0
2014-Oct-17 16:24N 34°11' E 132°15'0 0.0
2014-Oct-17 12:18N 34°11' E 132°15'0 0.0
2014-Oct-16 23:30N 34°11' E 132°15'0 0.0
2014-Oct-16 22:30N 34°11' E 132°15'0 0.0
2014-Oct-16 19:30N 34°11' E 132°15'0 0.0
2014-Oct-16 18:12N 34°11' E 132°15'0 0.0
2014-Oct-16 15:30N 34°11' E 132°15'0 0.0
2014-Oct-16 14:30N 34°11' E 132°15'0 0.0
2014-Oct-16 13:30N 34°11' E 132°15'0 0.0
2014-Oct-16 00:06N 34°11' E 132°15'0 0.0
2014-Oct-15 23:30N 34°11' E 132°15'0 0.0
2014-Oct-15 22:30N 34°11' E 132°15'0 0.0
2014-Oct-15 21:30N 34°11' E 132°15'0 0.0
2014-Oct-15 20:30N 34°11' E 132°15'0 0.0
2014-Oct-15 19:30N 34°11' E 132°15'0 0.0
2014-Oct-15 18:30N 34°11' E 132°15'0 0.0
2014-Oct-15 17:30N 34°11' E 132°15'0 0.0
2014-Oct-15 16:30N 34°11' E 132°15'0 0.0
2014-Oct-15 15:24N 34°11' E 132°15'0 0.0
2014-Oct-15 14:30N 34°11' E 132°15'0 0.0
2014-Oct-15 13:30N 34°11' E 132°15'0 0.0
2014-Oct-15 12:30N 34°11' E 132°15'0 0.0
2014-Oct-15 11:24N 34°11' E 132°15'0 0.0
2014-Oct-15 10:12N 34°11' E 132°15'0 0.0
2014-Oct-15 09:30N 34°11' E 132°15'0 0.0
2014-Oct-14 22:12N 34°11' E 132°15'0 0.0
2014-Oct-14 20:24N 34°11' E 132°15'0 0.0
2014-Oct-14 19:27N 34°11' E 132°15'0 0.0
2014-Oct-14 15:18N 34°11' E 132°15'0 0.0
2014-Oct-14 14:30N 34°11' E 132°15'1 0.1
2014-Oct-14 02:29N 34°11' E 132°16'3 2.7
2014-Oct-14 01:32N 34°10' E 132°19'0 0.1
2014-Oct-14 00:32N 34°10' E 132°19'0 0.0
2014-Oct-13 23:32N 34°10' E 132°19'0 0.0
2014-Oct-13 22:32N 34°10' E 132°19'0 0.1
2014-Oct-13 21:32N 34°10' E 132°19'0 0.0
2014-Oct-13 20:32N 34°10' E 132°19'0 0.0
2014-Oct-13 19:32N 34°10' E 132°19'0 0.0
2014-Oct-13 18:32N 34°10' E 132°19'0 0.0
2014-Oct-13 17:32N 34°10' E 132°19'0 0.0
2014-Oct-13 16:32N 34°10' E 132°19'0 0.0
2014-Oct-13 15:32N 34°10' E 132°19'0 0.0
2014-Oct-13 14:32N 34°10' E 132°19'0 0.0
2014-Oct-13 13:32N 34°10' E 132°19'0 0.0
2014-Oct-13 12:32N 34°10' E 132°19'0 0.0
2014-Oct-13 11:32N 34°10' E 132°19'0 0.0
2014-Oct-13 10:26N 34°10' E 132°19'0 0.1
2014-Oct-13 09:32N 34°10' E 132°19'0 0.0
2014-Oct-13 08:32N 34°10' E 132°19'0 0.0
2014-Oct-13 07:29N 34°10' E 132°19'0 0.0
2014-Oct-13 06:29N 34°10' E 132°19'0 0.1
2014-Oct-13 05:32N 34°10' E 132°19'0 0.0
2014-Oct-13 04:32N 34°10' E 132°19'0 0.0
2014-Oct-13 03:32N 34°10' E 132°19'0 0.1
2014-Oct-13 02:32N 34°10' E 132°19'0 0.0
2014-Oct-13 01:32N 34°10' E 132°19'0 0.1
2014-Oct-13 00:29N 34°10' E 132°19'0 0.0
2014-Oct-12 23:32N 34°10' E 132°19'0 0.0
2014-Oct-12 22:32N 34°10' E 132°19'0 0.0
2014-Oct-12 21:32N 34°10' E 132°19'0 0.0
2014-Oct-12 06:32N 34°10' E 132°19'0 0.0
2014-Oct-12 05:32N 34°10' E 132°19'0 0.0
2014-Oct-12 04:32N 34°10' E 132°19'0 0.0
2014-Oct-12 03:29N 34°10' E 132°19'0 0.0
2014-Oct-12 02:32N 34°10' E 132°19'0 0.0
2014-Oct-12 01:20N 34°10' E 132°19'0 0.0
2014-Oct-12 00:23N 34°10' E 132°19'3 0.7
2014-Oct-11 19:33N 34°11' E 132°15'0 0.0
2014-Oct-11 16:33N 34°11' E 132°15'0 0.0
2014-Oct-11 15:33N 34°11' E 132°15'0 0.0
2014-Oct-11 08:33N 34°11' E 132°15'0 0.0
2014-Oct-11 07:33N 34°11' E 132°15'0 0.0
2014-Oct-11 06:33N 34°11' E 132°15'0 0.0
2014-Oct-10 23:33N 34°11' E 132°15'0 0.0
2014-Oct-10 22:09N 34°11' E 132°15'0 0.0
2014-Oct-10 21:33N 34°11' E 132°15'0 0.0
2014-Oct-10 19:03N 34°11' E 132°15'0 0.0
2014-Oct-10 17:27N 34°11' E 132°15'0 0.0
2014-Oct-10 16:33N 34°11' E 132°15'0 0.0
2014-Oct-10 15:33N 34°11' E 132°15'0 0.0
2014-Oct-10 14:33N 34°11' E 132°15'0 0.0
2014-Oct-10 09:33N 34°11' E 132°15'0 0.0
2014-Oct-09 22:26N 34°11' E 132°15'1 0.4
2014-Oct-09 19:26N 34°10' E 132°16'2 0.3
2014-Oct-09 11:20N 34°09' E 132°18'  
Track history (hours):
 
Tides and Currents Weather Stations Pressure Air Temp Water Temp Dewpoint Dewpoint Depression Visibility Wind Speed Wind Dir Waves Ship Positions

Eastern Asia

Last reported at 2014-Oct-18 23:32 UTC. Time now 2014-Oct-23 01:48 UTC.
Position N 34°06' E 132°22'.

Length 175 m; draft 8.2 m.

Type: Cargo ship. MMSI: 355530000.

Date/timePositionNaut miles runAvg speedWind from/ knotsBaromVisibWave heightAir tempDewpointWater temp
2014-Oct-18 23:32N 34°06' E 132°22'8 0.3
2014-Oct-17 22:30N 34°11' E 132°15'0 0.0
2014-Oct-17 19:30N 34°11' E 132°15'0 0.0
2014-Oct-17 18:18N 34°11' E 132°15'0 0.0
2014-Oct-17 17:18N 34°11' E 132°15'0 0.0
2014-Oct-17 16:24N 34°11' E 132°15'0 0.0
2014-Oct-17 12:18N 34°11' E 132°15'0 0.0
2014-Oct-16 23:30N 34°11' E 132°15'0 0.0
2014-Oct-16 22:30N 34°11' E 132°15'0 0.0
2014-Oct-16 19:30N 34°11' E 132°15'0 0.0
2014-Oct-16 18:12N 34°11' E 132°15'0 0.0
2014-Oct-16 15:30N 34°11' E 132°15'0 0.0
2014-Oct-16 14:30N 34°11' E 132°15'0 0.0
2014-Oct-16 13:30N 34°11' E 132°15'0 0.0
2014-Oct-16 00:06N 34°11' E 132°15'0 0.0
2014-Oct-15 23:30N 34°11' E 132°15'0 0.0
2014-Oct-15 22:30N 34°11' E 132°15'0 0.0
2014-Oct-15 21:30N 34°11' E 132°15'0 0.0
2014-Oct-15 20:30N 34°11' E 132°15'0 0.0
2014-Oct-15 19:30N 34°11' E 132°15'0 0.0
2014-Oct-15 18:30N 34°11' E 132°15'0 0.0
2014-Oct-15 17:30N 34°11' E 132°15'0 0.0
2014-Oct-15 16:30N 34°11' E 132°15'0 0.0
2014-Oct-15 15:24N 34°11' E 132°15'0 0.0
2014-Oct-15 14:30N 34°11' E 132°15'0 0.0
2014-Oct-15 13:30N 34°11' E 132°15'0 0.0
2014-Oct-15 12:30N 34°11' E 132°15'0 0.0
2014-Oct-15 11:24N 34°11' E 132°15'0 0.0
2014-Oct-15 10:12N 34°11' E 132°15'0 0.0
2014-Oct-15 09:30N 34°11' E 132°15'0 0.0
2014-Oct-14 22:12N 34°11' E 132°15'0 0.0
2014-Oct-14 20:24N 34°11' E 132°15'0 0.0
2014-Oct-14 19:27N 34°11' E 132°15'0 0.0
2014-Oct-14 15:18N 34°11' E 132°15'0 0.0
2014-Oct-14 14:30N 34°11' E 132°15'1 0.1
2014-Oct-14 02:29N 34°11' E 132°16'3 2.7
2014-Oct-14 01:32N 34°10' E 132°19'0 0.1
2014-Oct-14 00:32N 34°10' E 132°19'0 0.0
2014-Oct-13 23:32N 34°10' E 132°19'0 0.0
2014-Oct-13 22:32N 34°10' E 132°19'0 0.1
2014-Oct-13 21:32N 34°10' E 132°19'0 0.0
2014-Oct-13 20:32N 34°10' E 132°19'0 0.0
2014-Oct-13 19:32N 34°10' E 132°19'0 0.0
2014-Oct-13 18:32N 34°10' E 132°19'0 0.0
2014-Oct-13 17:32N 34°10' E 132°19'0 0.0
2014-Oct-13 16:32N 34°10' E 132°19'0 0.0
2014-Oct-13 15:32N 34°10' E 132°19'0 0.0
2014-Oct-13 14:32N 34°10' E 132°19'0 0.0
2014-Oct-13 13:32N 34°10' E 132°19'0 0.0
2014-Oct-13 12:32N 34°10' E 132°19'0 0.0
2014-Oct-13 11:32N 34°10' E 132°19'0 0.0
2014-Oct-13 10:26N 34°10' E 132°19'0 0.1
2014-Oct-13 09:32N 34°10' E 132°19'0 0.0
2014-Oct-13 08:32N 34°10' E 132°19'0 0.0
2014-Oct-13 07:29N 34°10' E 132°19'0 0.0
2014-Oct-13 06:29N 34°10' E 132°19'0 0.1
2014-Oct-13 05:32N 34°10' E 132°19'0 0.0
2014-Oct-13 04:32N 34°10' E 132°19'0 0.0
2014-Oct-13 03:32N 34°10' E 132°19'0 0.1
2014-Oct-13 02:32N 34°10' E 132°19'0 0.0
2014-Oct-13 01:32N 34°10' E 132°19'0 0.1
2014-Oct-13 00:29N 34°10' E 132°19'0 0.0
2014-Oct-12 23:32N 34°10' E 132°19'0 0.0
2014-Oct-12 22:32N 34°10' E 132°19'0 0.0
2014-Oct-12 21:32N 34°10' E 132°19'0 0.0
2014-Oct-12 06:32N 34°10' E 132°19'0 0.0
2014-Oct-12 05:32N 34°10' E 132°19'0 0.0
2014-Oct-12 04:32N 34°10' E 132°19'0 0.0
2014-Oct-12 03:29N 34°10' E 132°19'0 0.0
2014-Oct-12 02:32N 34°10' E 132°19'0 0.0
2014-Oct-12 01:20N 34°10' E 132°19'0 0.0
2014-Oct-12 00:23N 34°10' E 132°19'3 0.7
2014-Oct-11 19:33N 34°11' E 132°15'0 0.0
2014-Oct-11 16:33N 34°11' E 132°15'0 0.0
2014-Oct-11 15:33N 34°11' E 132°15'0 0.0
2014-Oct-11 08:33N 34°11' E 132°15'0 0.0
2014-Oct-11 07:33N 34°11' E 132°15'0 0.0
2014-Oct-11 06:33N 34°11' E 132°15'0 0.0
2014-Oct-10 23:33N 34°11' E 132°15'0 0.0
2014-Oct-10 22:09N 34°11' E 132°15'0 0.0
2014-Oct-10 21:33N 34°11' E 132°15'0 0.0
2014-Oct-10 19:03N 34°11' E 132°15'0 0.0
2014-Oct-10 17:27N 34°11' E 132°15'0 0.0
2014-Oct-10 16:33N 34°11' E 132°15'0 0.0
2014-Oct-10 15:33N 34°11' E 132°15'0 0.0
2014-Oct-10 14:33N 34°11' E 132°15'0 0.0
2014-Oct-10 09:33N 34°11' E 132°15'0 0.0
2014-Oct-09 22:26N 34°11' E 132°15'1 0.4
2014-Oct-09 19:26N 34°10' E 132°16'2 0.3
2014-Oct-09 11:20N 34°09' E 132°18'  

Dump ship's entire track history